Wednesday, April 16, 2014
10:40 UTC
  |  Log In   |  Register Free
Airport Search:

Big Bear City Airport
(L35)

Big Bear City Airport Diagram
No Airport Diagram Available

FAA data valid effective April 3, 2014 until May 29, 2014 (unless otherwise noted).

 
 
 
 
 
 
 
 
 
 
 
 
 
 

Current Aviation Weather for Big Bear City Airport (L35)

The most recent METAR observation for KSBD was updated at: 0347 UTC
METAR Summary (Translated METAR)
KSBD
160347Z 23005KT 10SM SKC 20/M01 A2987
KRIV
(12.9 nm SW from KSBD)
160958Z AUTO 29002KT 10SM CLR 09/02 A2985 RMK AO2 SLPNO T00870019
TAF Summary (Translated TAF)
KRIV
(12.9 nm SW from KSBD)
1604/1710 VRB06KT 9999 SKC QNH2982INS TEMPO 1613/1616 15006KT 2400 BR BKN002 BECMG 1618/1619 30009KT 9999 SKC QNH2978INS BECMG 1621/1622 30012G18KT 9999 SKC QNH2974INS BECMG 1701/1702 VRB06KT 9999 FEW250 QNH2977INS TX27/1623Z TN09/1613Z
  Airport Weather Conditions for L35

Current weather conditions are
not available for L35


The nearest NOAA weather station
is at SBD, (21.4 nm SW from L35)
  
 Current Weather at SBD
68° F
Clear
Southwest winds at 5.8 mph
SBD NOAA Radar

Pressure: 29.87 in
Humidity: 24%
Wind: Southwest at 5.8 MPH (5 KT)
Dew Point: 30.2°F
Visibility: 10.00 mi


Airport Weather Forecast for L35

Translated METAR and TAF for KSBD
Translated METAR for KSBD (1040 UTC 16 April 2014)
found at http://aviationweather.gov/adds/metars/
 
You entered "KSBD"

Sorry, either there are no data available for your request or you did not enter any valid ICAO airport abbreviations.

See stations.txt for a list of known METAR and TAF locations. Then go back to the ADDS METARs or TAFs page and try again
 
Please try again and, if problems persist, then send mail to ncep.awc.adds@noaa.gov

Find All Airport Services Find A Hotel Find A Rental Car Find A Golf Course Find A Restaurant $100 Hamburger



FBO's on the Field
FBO Company Facility Photos Services Transportation Aviation Fuel Prices: Prices include tax
Catering Weather Repair Courtesy Rental Type 100LL JetA JetA+ MOGAS 8087
 
Big Bear Airport

This FBO has not yet been rated
FS:Epic
Last Updated: Apr-07
Login to update fuel prices
SS:
Contact Big Bear AirportMore FBO Information
 
Add another FBO Facility Photos Catering Weather Repair Courtesy Rental Type 100LL JetA JetA+ MOGAS 8087
Services Transportation Aviation Fuel Prices: Prices include tax


GlobalAir.com Airport Resource Center model-print
model-print
model-print
model-print